Aviation Digital Data Service (ADDS)

Output produced by METARs form (0026 UTC 17 December 2017)
found at http://www.aviationweather.gov/adds/metars/
 
KEWR 162338Z 1700/1806 26008KT P6SM VCSH BKN050 
     FM170100 29010KT P6SM BKN050 
     FM170300 32009KT P6SM BKN050 
     FM170600 34006KT P6SM SCT050 
     FM171200 01006KT P6SM SCT070 
     FM171500 VRB04KT P6SM BKN070 
     FM180200 VRB03KT P6SM BKN035